Current | Forecast
Updated: 4:00 PM CEST on June 29, 2017
Observed at Logrono, Spain
Temperature 23°C
Humidity 27%
Dew Point 3°C
Wind West at 26 km/h
Pressure 1009 hPa (Falling)
Conditions Scattered Clouds
Visibility 10.0 kilometers
UV 9 out of 16
Clouds Scattered Clouds (SCT) : 1371 m
Yesterday's Maximum 26°C
Yesterday's Minimum 15°C approx.
Yesterday's Cooling Degree Days 4 approx.
Sunrise6:35 AM CEST
Sunset9:52 PM CEST
Moon Rise12:39 PM CEST
Moon Set1:09 AM CEST
Moon PhaseMoon Phase
Waxing Crescent
Raw METARMETAR LELO 291400Z 27014KT 9999 SCT045 23/03 Q1009


Monday
. High: 80° F.
Tuesday
. High: 87° F.
Wednesday
. High: 73° F.
Thursday
. High: 69° F.
Friday
. High: 82° F.
Saturday
. High: 75° F.
Sunday
. High: 73° F.
Monday
. High: 86° F.

Click here for Marine Information
Scientific forecaster discussion (NWS)

Units: English | Metric

Find the Weather for any City, State or Zipcode, or Country:

U.S. State List | Severe Weather | Tropical Storms | Ski Conditions
United States | Canada | Central America | South America | Asia | Europe | Australia | Africa | Islands

Weather Underground

© Copyright 2017
The Weather Company, LLC